createdAt,value
2023-11-15T00:01:21.354Z,2.25
2023-11-15T00:03:48.999Z,2.05
2023-11-15T00:06:17.447Z,1.80
2023-11-15T00:08:45.154Z,1.50
2023-11-15T00:11:12.714Z,1.48
2023-11-15T00:13:40.342Z,1.58
2023-11-15T00:16:08.547Z,2.20
2023-11-15T00:18:36.175Z,1.35
2023-11-15T00:21:05.002Z,1.67
2023-11-15T00:23:33.707Z,2.90
2023-11-15T00:26:01.146Z,2.72
2023-11-15T00:28:28.821Z,1.98
2023-11-15T00:30:56.378Z,2.22
2023-11-15T00:33:24.068Z,2.38
2023-11-15T00:35:51.646Z,2.78
2023-11-15T00:38:19.284Z,2.35
2023-11-15T00:40:47.642Z,1.98
2023-11-15T00:43:16.694Z,2.30
2023-11-15T00:45:44.981Z,1.63
2023-11-15T00:50:40.982Z,1.60
2023-11-15T00:53:10.223Z,2.33
2023-11-15T00:55:37.763Z,1.90
2023-11-15T00:58:05.370Z,2.28
2023-11-15T01:00:40.831Z,2.30
2023-11-15T01:03:08.599Z,2.60
2023-11-15T01:05:36.182Z,1.35
2023-11-15T01:08:05.575Z,1.75
2023-11-15T01:10:33.200Z,2.38
2023-11-15T01:13:00.856Z,1.63
2023-11-15T01:15:28.434Z,1.90
2023-11-15T01:17:58.442Z,1.58
2023-11-15T01:20:26.585Z,1.55
2023-11-15T01:22:54.183Z,2.33
2023-11-15T01:25:22.863Z,1.75
2023-11-15T01:27:50.391Z,2.08
2023-11-15T01:30:17.893Z,2.40
2023-11-15T01:32:45.497Z,2.22
2023-11-15T01:35:13.197Z,1.85
2023-11-15T01:37:40.823Z,2.05
2023-11-15T01:40:09.161Z,1.42
2023-11-15T01:42:36.733Z,1.90
2023-11-15T01:45:04.914Z,1.77
2023-11-15T01:47:32.820Z,1.30
2023-11-15T01:50:01.806Z,1.67
2023-11-15T01:52:29.973Z,1.90
2023-11-15T01:55:00.058Z,1.80
2023-11-15T01:57:27.859Z,1.88
2023-11-15T01:59:56.168Z,2.15
2023-11-15T02:02:23.832Z,1.80
2023-11-15T02:04:51.395Z,1.77
2023-11-15T02:07:19.472Z,2.00
2023-11-15T02:09:47.149Z,2.03
2023-11-15T02:12:15.129Z,1.70
2023-11-15T02:14:43.145Z,1.95
2023-11-15T02:17:10.727Z,1.90
2023-11-15T02:19:38.652Z,1.98
2023-11-15T02:22:06.272Z,1.90
2023-11-15T02:24:33.811Z,2.05
2023-11-15T02:27:01.383Z,1.50
2023-11-15T02:29:28.873Z,2.63
2023-11-15T02:31:56.362Z,2.00
2023-11-15T02:34:23.910Z,2.22
2023-11-15T02:36:51.584Z,2.20
2023-11-15T02:39:19.094Z,2.05
2023-11-15T02:41:46.690Z,1.27
2023-11-15T02:44:14.218Z,1.95
2023-11-15T02:46:41.754Z,2.08
2023-11-15T02:49:09.586Z,2.35
2023-11-15T02:51:37.188Z,2.10
2023-11-15T02:54:05.324Z,1.92
2023-11-15T02:56:32.834Z,1.77
2023-11-15T02:59:00.347Z,2.20
2023-11-15T03:01:27.888Z,2.05
2023-11-15T03:03:55.686Z,1.20
2023-11-15T03:06:23.280Z,1.73
2023-11-15T03:08:51.479Z,1.85
2023-11-15T03:11:19.060Z,1.60
2023-11-15T03:13:46.746Z,1.50
2023-11-15T03:16:14.229Z,1.50
2023-11-15T03:18:44.221Z,1.70
2023-11-15T03:21:11.943Z,1.88
2023-11-15T03:23:40.263Z,1.65
2023-11-15T03:26:09.000Z,1.48
2023-11-15T03:28:37.015Z,1.92
2023-11-15T03:31:07.231Z,1.40
2023-11-15T03:33:34.880Z,1.20
2023-11-15T03:36:02.540Z,1.02
2023-11-15T03:38:30.233Z,0.90
2023-11-15T03:40:57.957Z,1.55
2023-11-15T03:43:25.540Z,0.85
2023-11-15T03:45:53.268Z,1.52
2023-11-15T03:48:20.986Z,1.25
2023-11-15T03:50:48.563Z,0.90
2023-11-15T03:53:17.772Z,1.00
2023-11-15T03:55:47.631Z,1.20
2023-11-15T03:58:15.537Z,1.50
2023-11-15T04:00:43.482Z,1.35
2023-11-15T04:03:11.339Z,1.50
2023-11-15T04:05:39.162Z,1.20
2023-11-15T04:08:06.773Z,1.63
2023-11-15T04:10:34.244Z,1.05
2023-11-15T04:13:01.792Z,1.77
2023-11-15T04:15:29.862Z,1.48
2023-11-15T04:17:57.524Z,1.98
2023-11-15T04:20:25.131Z,1.35
2023-11-15T04:22:52.675Z,1.58
2023-11-15T04:25:20.218Z,1.52
2023-11-15T04:27:47.791Z,1.50
2023-11-15T04:30:17.183Z,1.40
2023-11-15T04:32:46.676Z,1.23
2023-11-15T04:35:14.917Z,1.80
2023-11-15T04:37:42.480Z,1.63
2023-11-15T04:40:11.464Z,2.35
2023-11-15T04:42:40.132Z,1.73
2023-11-15T04:45:08.397Z,1.60
2023-11-15T04:47:36.694Z,1.75
2023-11-15T04:50:05.636Z,1.77
2023-11-15T04:52:33.108Z,2.25
2023-11-15T04:55:00.872Z,3.03
2023-11-15T04:57:30.600Z,2.08
2023-11-15T04:59:58.281Z,1.67
2023-11-15T05:02:28.483Z,1.30
2023-11-15T05:04:56.704Z,1.38
2023-11-15T05:07:26.236Z,1.40
2023-11-15T05:09:54.738Z,1.38
2023-11-15T05:12:23.306Z,1.67
2023-11-15T05:14:51.665Z,1.60
2023-11-15T05:17:19.196Z,1.38
2023-11-15T05:19:46.760Z,2.10
2023-11-15T05:22:14.308Z,1.90
2023-11-15T05:24:42.380Z,2.58
2023-11-15T05:27:11.115Z,1.90
2023-11-15T05:29:38.990Z,1.63
2023-11-15T05:32:06.873Z,1.70
2023-11-15T05:34:34.605Z,1.65
2023-11-15T05:37:02.201Z,2.15
2023-11-15T05:39:29.730Z,2.20
2023-11-15T05:41:57.348Z,1.75
2023-11-15T05:44:24.831Z,1.98
2023-11-15T05:46:52.546Z,1.75
2023-11-15T05:49:20.167Z,1.73
2023-11-15T05:51:47.639Z,1.73
2023-11-15T05:54:15.606Z,2.08
2023-11-15T05:56:49.042Z,2.55
2023-11-15T05:59:16.587Z,2.47
2023-11-15T06:01:44.474Z,2.40
2023-11-15T06:04:12.054Z,2.63
2023-11-15T06:06:39.625Z,2.13
2023-11-15T06:09:07.164Z,3.25
2023-11-15T06:11:34.814Z,1.92
2023-11-15T06:14:02.400Z,1.35
2023-11-15T06:16:29.942Z,2.13
2023-11-15T06:18:57.504Z,1.63
2023-11-15T06:21:24.955Z,2.10
2023-11-15T06:23:52.708Z,1.67
2023-11-15T06:26:21.032Z,2.33
2023-11-15T06:28:50.343Z,1.42
2023-11-15T06:31:19.802Z,1.00
2023-11-15T06:33:47.513Z,0.90
2023-11-15T06:36:17.143Z,1.40
2023-11-15T06:38:45.609Z,1.00
2023-11-15T06:41:13.317Z,1.73
2023-11-15T06:43:40.865Z,1.00
2023-11-15T06:46:08.579Z,1.10
2023-11-15T06:48:36.313Z,1.40
2023-11-15T06:51:06.184Z,2.00
2023-11-15T06:53:34.280Z,1.98
2023-11-15T06:56:01.865Z,1.48
2023-11-15T06:58:29.407Z,1.83
2023-11-15T07:00:56.961Z,1.60
2023-11-15T07:03:24.685Z,2.03
2023-11-15T07:05:52.476Z,1.80
2023-11-15T07:08:23.279Z,1.83
2023-11-15T07:10:50.865Z,1.30
2023-11-15T07:13:18.401Z,1.33
2023-11-15T07:15:45.932Z,1.20
2023-11-15T07:18:13.581Z,1.60
2023-11-15T07:20:42.894Z,1.20
2023-11-15T07:23:10.577Z,1.75
2023-11-15T07:25:38.062Z,1.25
2023-11-15T07:28:06.139Z,1.40
2023-11-15T07:30:34.262Z,1.70
2023-11-15T07:33:01.953Z,1.50
2023-11-15T07:35:30.031Z,1.20
2023-11-15T07:37:57.733Z,1.55
2023-11-15T07:40:25.306Z,1.70
2023-11-15T07:42:52.873Z,2.25
2023-11-15T07:45:20.503Z,1.35
2023-11-15T07:47:48.178Z,1.88
2023-11-15T07:50:17.248Z,1.17
2023-11-15T07:52:46.479Z,1.17
2023-11-15T07:55:14.290Z,1.90
2023-11-15T07:57:41.843Z,1.30
2023-11-15T08:00:12.493Z,1.10
2023-11-15T08:02:42.882Z,1.40
2023-11-15T08:05:11.443Z,1.35
2023-11-15T08:07:39.553Z,1.42
2023-11-15T08:10:08.251Z,1.77
2023-11-15T08:12:37.456Z,1.60
2023-11-15T08:15:06.613Z,1.50
2023-11-15T08:17:37.734Z,1.48
2023-11-15T08:20:10.651Z,1.60
2023-11-15T08:22:39.215Z,1.17
2023-11-15T08:25:11.013Z,1.75
2023-11-15T08:27:39.954Z,1.55
2023-11-15T08:30:19.055Z,1.48
2023-11-15T08:32:48.571Z,1.95
2023-11-15T08:35:17.936Z,1.40
2023-11-15T08:37:46.974Z,2.45
2023-11-15T08:40:26.065Z,1.30
2023-11-15T08:42:58.343Z,1.85
2023-11-15T08:45:27.022Z,2.17
2023-11-15T08:47:59.117Z,1.50
2023-11-15T08:50:28.514Z,2.00
2023-11-15T08:52:56.326Z,1.25
2023-11-15T08:55:24.623Z,1.38
2023-11-15T08:57:52.254Z,1.48
2023-11-15T09:00:19.953Z,2.20
2023-11-15T09:02:49.539Z,1.70
2023-11-15T09:05:21.096Z,1.60
2023-11-15T09:07:48.979Z,1.48
2023-11-15T09:10:17.616Z,2.00
2023-11-15T09:12:48.233Z,1.60
2023-11-15T09:15:16.195Z,2.17
2023-11-15T09:17:47.693Z,1.35
2023-11-15T09:20:21.983Z,1.50
2023-11-15T09:22:49.962Z,3.33
2023-11-15T09:25:31.529Z,1.45
2023-11-15T09:28:01.201Z,1.40
2023-11-15T09:30:32.205Z,2.10
2023-11-15T09:33:01.241Z,1.60
2023-11-15T09:35:32.673Z,1.35
2023-11-15T09:38:00.457Z,1.27
2023-11-15T09:40:28.846Z,1.40
2023-11-15T09:43:00.170Z,1.30
2023-11-15T09:45:28.029Z,1.33
2023-11-15T09:47:58.167Z,1.00
2023-11-15T09:50:28.138Z,1.10
2023-11-15T09:52:56.869Z,0.90
2023-11-15T09:55:25.779Z,1.20
2023-11-15T09:57:54.257Z,0.93
2023-11-15T10:00:24.134Z,1.25
2023-11-15T10:02:53.800Z,1.10
2023-11-15T10:05:25.101Z,1.20
2023-11-15T10:08:09.891Z,2.83
2023-11-15T10:10:38.841Z,3.33
2023-11-15T10:13:26.844Z,3.00
2023-11-15T10:15:55.895Z,1.77
2023-11-15T10:18:33.511Z,1.30
2023-11-15T10:21:13.198Z,1.98
2023-11-15T10:23:42.670Z,2.40
2023-11-15T10:26:10.965Z,1.70
2023-11-15T10:28:41.047Z,1.63
2023-11-15T10:31:20.075Z,0.98
2023-11-15T10:33:52.461Z,1.10
2023-11-15T10:36:22.877Z,0.98
2023-11-15T10:39:00.867Z,1.05
2023-11-15T10:41:32.081Z,1.08
2023-11-15T10:44:00.509Z,0.80
2023-11-15T10:46:30.748Z,1.00
2023-11-15T10:49:00.846Z,1.02
2023-11-15T10:51:42.729Z,1.00
2023-11-15T10:54:12.654Z,1.02
2023-11-15T10:56:43.537Z,0.93
2023-11-15T10:59:14.750Z,0.95
2023-11-15T11:01:42.951Z,1.13
2023-11-15T11:04:13.061Z,1.13
2023-11-15T11:06:59.244Z,0.90
2023-11-15T11:09:47.523Z,1.30
2023-11-15T11:12:19.588Z,1.20
2023-11-15T11:14:47.621Z,2.38
2023-11-15T11:17:36.089Z,1.30
2023-11-15T11:20:24.185Z,1.00
2023-11-15T11:23:12.531Z,0.90
2023-11-15T11:25:40.765Z,1.17
2023-11-15T11:28:14.295Z,0.95
2023-11-15T11:30:43.651Z,0.80
2023-11-15T11:33:20.526Z,1.30
2023-11-15T11:35:49.600Z,1.00
2023-11-15T11:38:45.488Z,1.23
2023-11-15T11:41:14.030Z,1.35
2023-11-15T11:43:43.201Z,1.38
2023-11-15T11:46:17.340Z,1.38
2023-11-15T11:48:45.305Z,1.20
2023-11-15T11:51:13.063Z,1.15
2023-11-15T11:53:43.733Z,1.10
2023-11-15T11:56:12.127Z,1.00
2023-11-15T11:58:40.806Z,1.15
2023-11-15T12:01:11.508Z,1.25
2023-11-15T12:03:45.773Z,1.20
2023-11-15T12:06:13.978Z,1.10
2023-11-15T12:08:51.070Z,1.10
2023-11-15T12:11:22.768Z,1.38
2023-11-15T12:13:52.396Z,0.85
2023-11-15T12:16:26.943Z,1.00
2023-11-15T12:19:04.048Z,1.10
2023-11-15T12:21:37.812Z,1.08
2023-11-15T12:24:07.646Z,0.90
2023-11-15T12:27:03.647Z,1.20
2023-11-15T12:29:36.772Z,1.05
2023-11-15T12:32:05.698Z,1.10
2023-11-15T12:34:33.473Z,1.27
2023-11-15T12:37:01.156Z,1.20
2023-11-15T12:39:39.138Z,1.02
2023-11-15T12:42:06.972Z,1.10
2023-11-15T12:44:48.261Z,1.00
2023-11-15T12:47:17.610Z,1.27
2023-11-15T12:49:45.380Z,1.10
2023-11-15T12:52:13.004Z,1.23
2023-11-15T12:54:59.118Z,1.30
2023-11-15T12:57:27.739Z,1.40
2023-11-15T12:59:55.208Z,1.27
2023-11-15T13:02:27.924Z,1.00
2023-11-15T13:04:55.922Z,1.23
2023-11-15T13:07:23.414Z,1.30
2023-11-15T13:09:50.955Z,1.20
2023-11-15T13:12:27.973Z,1.27
2023-11-15T13:14:56.230Z,1.50
2023-11-15T13:17:25.115Z,1.27
2023-11-15T13:19:52.572Z,1.08
2023-11-15T13:22:20.045Z,1.20
2023-11-15T13:24:50.351Z,1.50
2023-11-15T13:27:19.251Z,1.38
2023-11-15T13:29:47.024Z,1.00
2023-11-15T13:32:15.764Z,1.30
2023-11-15T13:34:46.616Z,1.02
2023-11-15T13:37:14.504Z,0.98
2023-11-15T13:39:42.066Z,0.95
2023-11-15T13:42:09.792Z,1.30
2023-11-15T13:44:37.436Z,1.25
2023-11-15T13:47:07.608Z,1.35
2023-11-15T13:49:35.170Z,1.60
2023-11-15T13:52:02.666Z,1.27
2023-11-15T13:54:30.284Z,1.08
2023-11-15T13:56:58.662Z,1.08
2023-11-15T13:59:26.159Z,1.02
2023-11-15T14:01:53.565Z,1.10
2023-11-15T14:04:21.076Z,1.50
2023-11-15T14:06:48.808Z,1.33
2023-11-15T14:09:16.332Z,1.20
2023-11-15T14:11:46.096Z,1.20
2023-11-15T14:14:13.757Z,1.38
2023-11-15T14:16:41.861Z,1.30
2023-11-15T14:19:11.291Z,1.20
2023-11-15T14:21:40.258Z,1.48
2023-11-15T14:24:09.517Z,1.50
2023-11-15T14:26:37.387Z,1.60
2023-11-15T14:29:09.331Z,1.23
2023-11-15T14:31:38.909Z,1.20
2023-11-15T14:34:08.503Z,1.13
2023-11-15T14:36:38.548Z,1.20
2023-11-15T14:39:08.806Z,1.45
2023-11-15T14:41:36.407Z,1.48
2023-11-15T14:44:05.064Z,1.35
2023-11-15T14:46:34.165Z,1.60
2023-11-15T14:49:02.137Z,1.50
2023-11-15T14:51:29.779Z,1.40
2023-11-15T14:53:57.493Z,1.55
2023-11-15T14:56:25.339Z,1.20
2023-11-15T14:58:54.557Z,1.30
2023-11-15T15:01:25.117Z,1.30
2023-11-15T15:03:53.654Z,1.63
2023-11-15T15:06:21.382Z,1.23
2023-11-15T15:08:48.951Z,1.20
2023-11-15T15:11:16.663Z,1.20
2023-11-15T15:13:44.272Z,1.20
2023-11-15T15:16:13.090Z,1.55
2023-11-15T15:18:41.817Z,1.00
2023-11-15T15:21:11.107Z,1.10
2023-11-15T15:23:38.776Z,1.30
2023-11-15T15:26:06.657Z,0.95
2023-11-15T15:28:34.562Z,1.23
2023-11-15T15:31:02.276Z,1.20
2023-11-15T15:33:30.075Z,1.10
2023-11-15T15:35:58.747Z,1.20
2023-11-15T15:38:27.051Z,1.27
2023-11-15T15:40:55.551Z,1.75
2023-11-15T15:43:23.132Z,1.30
2023-11-15T15:45:50.798Z,1.08
2023-11-15T15:48:19.155Z,1.10
2023-11-15T15:50:48.706Z,0.80
2023-11-15T15:53:16.219Z,1.15
2023-11-15T15:55:44.378Z,0.95
2023-11-15T15:58:12.175Z,1.30
2023-11-15T16:00:39.788Z,1.48
2023-11-15T16:03:07.510Z,1.50
2023-11-15T16:05:35.098Z,1.70
2023-11-15T16:08:02.708Z,1.10
2023-11-15T16:10:30.426Z,1.60
2023-11-15T16:12:58.812Z,1.83
2023-11-15T16:15:26.788Z,1.40
2023-11-15T16:17:55.576Z,1.40
2023-11-15T16:20:23.176Z,1.38
2023-11-15T16:22:52.766Z,1.48
2023-11-15T16:25:20.410Z,1.80
2023-11-15T16:27:48.018Z,1.45
2023-11-15T16:30:15.735Z,1.30
2023-11-15T16:32:43.704Z,1.67
2023-11-15T16:35:11.413Z,0.95
2023-11-15T16:37:42.794Z,1.00
2023-11-15T16:40:11.768Z,1.60
2023-11-15T16:42:40.423Z,1.80
2023-11-15T16:45:09.682Z,1.60
2023-11-15T16:47:39.717Z,1.38
2023-11-15T16:50:08.608Z,1.38
2023-11-15T16:52:36.432Z,1.35
2023-11-15T16:55:06.752Z,1.40
2023-11-15T16:57:34.590Z,1.40
2023-11-15T17:00:02.308Z,1.58
2023-11-15T17:02:29.911Z,1.75
2023-11-15T17:04:58.268Z,1.17
2023-11-15T17:07:25.830Z,1.50
2023-11-15T17:09:53.490Z,1.58
2023-11-15T17:12:21.478Z,1.55
2023-11-15T17:14:49.228Z,1.20
2023-11-15T17:17:17.303Z,1.30
2023-11-15T17:19:47.704Z,1.90
2023-11-15T17:22:15.452Z,1.88
2023-11-15T17:24:44.238Z,2.83
2023-11-15T17:27:11.887Z,2.80
2023-11-15T17:29:40.665Z,2.47
2023-11-15T17:32:08.583Z,3.20
2023-11-15T17:34:37.302Z,3.33
2023-11-15T17:37:05.012Z,3.70
2023-11-15T17:39:33.432Z,3.60
2023-11-15T17:42:01.181Z,4.05
2023-11-15T17:44:30.643Z,4.55
2023-11-15T17:46:58.567Z,4.32
2023-11-15T17:49:26.068Z,5.75
2023-11-15T17:51:54.644Z,5.57
2023-11-15T17:54:24.037Z,5.47
2023-11-15T17:56:51.747Z,5.28
2023-11-15T17:59:19.376Z,5.72
2023-11-15T18:01:47.056Z,4.95
2023-11-15T18:04:16.418Z,4.97
2023-11-15T18:06:44.678Z,7.00
2023-11-15T18:09:13.147Z,7.43
2023-11-15T18:11:41.001Z,6.40
2023-11-15T18:14:08.468Z,6.72
2023-11-15T18:16:36.262Z,7.90
2023-11-15T18:19:10.058Z,6.78
2023-11-15T18:21:38.886Z,5.85
2023-11-15T18:24:07.431Z,5.78
2023-11-15T18:26:38.094Z,6.53
2023-11-15T18:29:05.800Z,5.53
2023-11-15T18:31:33.401Z,6.60
2023-11-15T18:34:01.454Z,6.30
2023-11-15T18:36:30.861Z,6.40
2023-11-15T18:38:58.888Z,6.57
2023-11-15T18:41:26.594Z,6.45
2023-11-15T18:43:57.952Z,5.43
2023-11-15T18:46:26.127Z,6.38
2023-11-15T18:48:53.740Z,5.88
2023-11-15T18:51:23.489Z,6.25
2023-11-15T18:53:51.357Z,6.25
2023-11-15T18:56:18.959Z,5.13
2023-11-15T18:58:46.840Z,5.30
2023-11-15T19:01:14.483Z,4.07
2023-11-15T19:03:42.435Z,4.57
2023-11-15T19:06:10.312Z,4.05
2023-11-15T19:08:37.877Z,4.78
2023-11-15T19:11:06.913Z,4.03
2023-11-15T19:13:34.477Z,3.40
2023-11-15T19:16:02.219Z,5.35
2023-11-15T19:18:30.047Z,3.97
2023-11-15T19:20:58.994Z,4.05
2023-11-15T19:23:27.043Z,5.55
2023-11-15T19:25:54.752Z,4.75
2023-11-15T19:28:23.629Z,4.30
2023-11-15T19:30:51.276Z,4.03
2023-11-15T19:33:20.867Z,4.28
2023-11-15T19:35:49.722Z,4.47
2023-11-15T19:38:17.641Z,4.68
2023-11-15T19:40:46.085Z,3.85
2023-11-15T19:43:13.997Z,4.68
2023-11-15T19:45:41.997Z,3.90
2023-11-15T19:48:10.572Z,3.45
2023-11-15T19:50:39.647Z,4.00
2023-11-15T19:53:08.485Z,4.63
2023-11-15T19:55:39.615Z,4.80
2023-11-15T19:58:07.146Z,4.50
2023-11-15T20:00:37.767Z,4.38
2023-11-15T20:03:11.070Z,5.47
2023-11-15T20:05:42.003Z,5.10
2023-11-15T20:08:10.312Z,5.25
2023-11-15T20:10:37.891Z,4.80
2023-11-15T20:13:06.619Z,4.95
2023-11-15T20:15:35.008Z,4.30
2023-11-15T20:18:03.543Z,5.22
2023-11-15T20:20:31.158Z,8.25
2023-11-15T20:22:59.984Z,6.75
2023-11-15T20:25:27.487Z,7.03
2023-11-15T20:27:55.175Z,6.03
2023-11-15T20:30:23.327Z,7.40
2023-11-15T20:32:53.485Z,5.85
2023-11-15T20:35:23.745Z,6.90
2023-11-15T20:37:54.283Z,5.65
2023-11-15T20:40:26.804Z,5.78
2023-11-15T20:42:54.484Z,6.40
2023-11-15T20:45:23.259Z,5.60
2023-11-15T20:47:51.484Z,6.95
2023-11-15T20:50:19.213Z,6.15
2023-11-15T20:52:48.341Z,6.05
2023-11-15T20:55:20.554Z,6.80
2023-11-15T20:57:48.040Z,8.50
2023-11-15T21:00:26.481Z,7.93
2023-11-15T21:02:55.265Z,5.88
2023-11-15T21:05:23.206Z,6.68
2023-11-15T21:07:50.789Z,6.32
2023-11-15T21:10:20.045Z,6.70
2023-11-15T21:12:47.682Z,6.68
2023-11-15T21:15:16.835Z,5.85
2023-11-15T21:17:45.709Z,5.75
2023-11-15T21:20:13.537Z,6.78
2023-11-15T21:22:41.535Z,5.45
2023-11-15T21:25:15.345Z,6.63
2023-11-15T21:27:43.793Z,7.10
2023-11-15T21:30:13.364Z,5.75
2023-11-15T21:32:42.362Z,5.70
2023-11-15T21:35:12.015Z,3.67
2023-11-15T21:37:43.857Z,4.78
2023-11-15T21:40:17.053Z,3.55
2023-11-15T21:42:45.793Z,4.03
2023-11-15T21:45:14.377Z,3.67
2023-11-15T21:47:43.834Z,3.60
2023-11-15T21:50:16.112Z,3.72
2023-11-15T21:52:44.757Z,3.53
2023-11-15T21:55:12.623Z,3.65
2023-11-15T21:57:40.254Z,3.45
2023-11-15T22:00:16.011Z,3.03
2023-11-15T22:05:11.698Z,3.83
2023-11-15T22:07:40.081Z,3.17
2023-11-15T22:10:11.436Z,3.15
2023-11-15T22:12:39.500Z,3.60
2023-11-15T22:15:08.723Z,3.63
2023-11-15T22:17:41.357Z,4.55
2023-11-15T22:20:11.833Z,3.85
2023-11-15T22:22:40.685Z,4.05
2023-11-15T22:25:08.202Z,4.53
2023-11-15T22:27:35.751Z,4.22
2023-11-15T22:30:03.571Z,3.65
2023-11-15T22:32:31.176Z,3.17
2023-11-15T22:34:58.744Z,3.90
2023-11-15T22:37:26.318Z,4.20
2023-11-15T22:39:53.804Z,4.10
2023-11-15T22:42:21.370Z,3.63
2023-11-15T22:44:48.862Z,4.28
2023-11-15T22:47:16.396Z,4.05
2023-11-15T22:49:44.372Z,3.50
2023-11-15T22:52:11.887Z,3.75
2023-11-15T22:54:41.069Z,4.07
2023-11-15T22:57:08.827Z,3.60
2023-11-15T22:59:37.909Z,2.70
2023-11-15T23:02:05.560Z,3.50
2023-11-15T23:04:33.274Z,2.90
2023-11-15T23:07:00.961Z,2.92
2023-11-15T23:09:28.612Z,3.78
2023-11-15T23:11:57.529Z,2.78
2023-11-15T23:14:25.141Z,2.40
2023-11-15T23:16:52.784Z,2.50
2023-11-15T23:19:21.371Z,2.30
2023-11-15T23:21:58.840Z,2.28
2023-11-15T23:24:30.933Z,2.50
2023-11-15T23:27:00.309Z,2.70
2023-11-15T23:29:30.695Z,2.22
2023-11-15T23:31:58.660Z,2.38
2023-11-15T23:34:26.293Z,2.50
2023-11-15T23:36:55.257Z,1.92
2023-11-15T23:39:24.267Z,3.05
2023-11-15T23:41:52.083Z,2.33
2023-11-15T23:44:19.812Z,2.60
2023-11-15T23:46:50.845Z,3.03
2023-11-15T23:49:19.984Z,2.47
2023-11-15T23:51:47.456Z,2.70
2023-11-15T23:54:15.051Z,2.47
2023-11-15T23:56:43.381Z,2.47
2023-11-15T23:59:11.163Z,2.90
